APL Singapore — WCX8812 — position and weather

sailwx.info

Track history (hours):
 
Tides and Currents Weather Stations Pressure Air Temp Water Temp Dewpoint Dewpoint Depression Visibility Wind Speed Wind Dir Waves Ship Positions

APL Singapore

Owner: APL Maritime, Ltd, Rockville, MD. More information available from US FCC via Universal Licensing System and Coast Guard Vessel Documentation Center.

Last reported at 2018-Feb-19 07:35 UTC. Time now 2018-Feb-24 18:03 UTC.
Position N 41°33' E 141°39'.

Type: Ship (hazmat cat A). MMSI: 368680000.

Date/timePositionNaut miles runAvg speedWind from/ knotsBaromVisibWave heightAir tempDewpointWater temp
2018-Feb-19 07:35N 41°33' E 141°39'222.7
2018-Feb-19 07:30N 41°33' E 141°37'1224.0
2018-Feb-19 07:01N 41°34' E 141°21'1223.2
2018-Feb-19 06:30N 41°35' E 141°05'1224.4
2018-Feb-19 06:01N 41°35' E 140°49'1223.8
2018-Feb-19 05:30N 41°30' E 140°35'1224.2
2018-Feb-19 05:00N 41°23' E 140°21'  
2018-Feb-14 08:37N 31°11' E 122°33'1312.8
2018-Feb-14 07:36N 31°06' E 122°19'1 4.9
2018-Feb-14 07:22N 31°06' E 122°18'614.9
2018-Feb-14 07:00N 31°10' E 122°12'714.9
2018-Feb-14 06:30N 31°14' E 122°05'814.7
2018-Feb-14 05:59N 31°15' E 121°57'20 1.2
2018-Feb-13 12:57N 31°23' E 121°34'0 0.0
2018-Feb-13 12:27N 31°23' E 121°34'0 0.0
2018-Feb-13 11:57N 31°23' E 121°34'0 0.0
2018-Feb-13 11:27N 31°23' E 121°34'0 0.0
2018-Feb-13 10:57N 31°23' E 121°34'0 0.0
2018-Feb-13 10:21N 31°23' E 121°34'0 0.0
2018-Feb-13 09:51N 31°23' E 121°34'1 0.1
2018-Feb-13 03:43N 31°23' E 121°35'1 5.5
2018-Feb-13 03:30N 31°23' E 121°36'4 8.4
2018-Feb-13 03:00N 31°21' E 121°40'510.4
2018-Feb-13 02:29N 31°18' E 121°46'611.0
2018-Feb-13 01:54N 31°16' E 121°53'5 9.0
2018-Feb-13 01:22N 31°15' E 121°58'410.7
2018-Feb-13 01:00N 31°14' E 122°03'5 9.9
2018-Feb-13 00:28N 31°12' E 122°09'4 9.7
2018-Feb-13 00:00N 31°10' E 122°13'510.5
2018-Feb-12 23:30N 31°07' E 122°18'4 8.4
2018-Feb-12 23:00N 31°06' E 122°23'4 7.0
2018-Feb-12 22:30N 31°07' E 122°27'3 6.2
2018-Feb-12 21:58N 31°09' E 122°30'5 9.1
2018-Feb-12 21:28N 31°14' E 122°31'302 8.4
2018-Feb-11 09:37N 35°59' E 120°31'3 7.9
2018-Feb-11 09:11N 35°60' E 120°27'311.6
2018-Feb-11 08:54N 36°00' E 120°23'611.4
2018-Feb-11 08:25N 36°02' E 120°17'3 6.1
2018-Feb-11 07:56N 36°01' E 120°13'0 0.2
2018-Feb-11 07:24N 36°00' E 120°13'0 0.1
2018-Feb-11 06:37N 36°00' E 120°13'0 0.0
2018-Feb-11 06:07N 36°00' E 120°13'0 0.0
2018-Feb-11 05:13N 36°00' E 120°13'0 0.0
2018-Feb-11 04:55N 36°00' E 120°13'0 0.0
2018-Feb-11 04:22N 36°00' E 120°13'0 0.0
2018-Feb-11 03:18N 36°00' E 120°13'0 0.0
2018-Feb-11 02:58N 36°00' E 120°13'0 0.0
2018-Feb-11 02:25N 36°00' E 120°13'0 0.0
2018-Feb-11 01:58N 36°00' E 120°13'0 0.0
2018-Feb-11 01:28N 36°00' E 120°13'0 0.0
2018-Feb-11 00:28N 36°00' E 120°13'0 0.0
2018-Feb-10 23:52N 36°00' E 120°13'0 0.0
2018-Feb-10 22:49N 36°00' E 120°13'0 0.0
2018-Feb-10 22:13N 36°00' E 120°13'0 0.0
2018-Feb-10 21:31N 36°00' E 120°13'0 0.0
2018-Feb-10 20:34N 36°00' E 120°13'0 0.0
2018-Feb-10 20:16N 36°00' E 120°13'0 0.0
2018-Feb-10 20:00N 36°00' E 120°13'0 0.0
2018-Feb-10 19:21N 36°00' E 120°13'0 0.0
2018-Feb-10 18:59N 36°00' E 120°13'0 0.0
2018-Feb-10 17:44N 36°00' E 120°13'0 0.2
2018-Feb-10 17:25N 36°00' E 120°13'0 0.0
2018-Feb-10 15:22N 36°00' E 120°13'0 0.0
2018-Feb-10 14:49N 36°00' E 120°13'0 0.0
2018-Feb-10 14:16N 36°00' E 120°13'0 0.0
2018-Feb-10 13:58N 36°00' E 120°13'0 0.0
2018-Feb-10 13:22N 36°00' E 120°13'0 0.0
2018-Feb-10 12:58N 36°00' E 120°13'0 0.0
2018-Feb-10 11:48N 36°00' E 120°13'0 0.0
2018-Feb-10 11:29N 36°00' E 120°13'0 0.1
2018-Feb-10 10:52N 36°00' E 120°13'0 0.1
2018-Feb-10 10:16N 36°00' E 120°13'0 0.3
2018-Feb-10 09:35N 36°01' E 120°13'1 4.9
2018-Feb-10 09:18N 36°02' E 120°14'510.5
2018-Feb-10 08:48N 36°01' E 120°21'  
Track history (hours):
 
Tides and Currents Weather Stations Pressure Air Temp Water Temp Dewpoint Dewpoint Depression Visibility Wind Speed Wind Dir Waves Ship Positions

APL Singapore

Owner: APL Maritime, Ltd, Rockville, MD. More information available from US FCC via Universal Licensing System and Coast Guard Vessel Documentation Center.

Last reported at 2018-Feb-19 07:35 UTC. Time now 2018-Feb-24 18:03 UTC.
Position N 41°33' E 141°39'.

Type: Ship (hazmat cat A). MMSI: 368680000.

Date/timePositionNaut miles runAvg speedWind from/ knotsBaromVisibWave heightAir tempDewpointWater temp
2018-Feb-19 07:35N 41°33' E 141°39'222.7
2018-Feb-19 07:30N 41°33' E 141°37'1224.0
2018-Feb-19 07:01N 41°34' E 141°21'1223.2
2018-Feb-19 06:30N 41°35' E 141°05'1224.4
2018-Feb-19 06:01N 41°35' E 140°49'1223.8
2018-Feb-19 05:30N 41°30' E 140°35'1224.2
2018-Feb-19 05:00N 41°23' E 140°21'  
2018-Feb-14 08:37N 31°11' E 122°33'1312.8
2018-Feb-14 07:36N 31°06' E 122°19'1 4.9
2018-Feb-14 07:22N 31°06' E 122°18'614.9
2018-Feb-14 07:00N 31°10' E 122°12'714.9
2018-Feb-14 06:30N 31°14' E 122°05'814.7
2018-Feb-14 05:59N 31°15' E 121°57'20 1.2
2018-Feb-13 12:57N 31°23' E 121°34'0 0.0
2018-Feb-13 12:27N 31°23' E 121°34'0 0.0
2018-Feb-13 11:57N 31°23' E 121°34'0 0.0
2018-Feb-13 11:27N 31°23' E 121°34'0 0.0
2018-Feb-13 10:57N 31°23' E 121°34'0 0.0
2018-Feb-13 10:21N 31°23' E 121°34'0 0.0
2018-Feb-13 09:51N 31°23' E 121°34'1 0.1
2018-Feb-13 03:43N 31°23' E 121°35'1 5.5
2018-Feb-13 03:30N 31°23' E 121°36'4 8.4
2018-Feb-13 03:00N 31°21' E 121°40'510.4
2018-Feb-13 02:29N 31°18' E 121°46'611.0
2018-Feb-13 01:54N 31°16' E 121°53'5 9.0
2018-Feb-13 01:22N 31°15' E 121°58'410.7
2018-Feb-13 01:00N 31°14' E 122°03'5 9.9
2018-Feb-13 00:28N 31°12' E 122°09'4 9.7
2018-Feb-13 00:00N 31°10' E 122°13'510.5
2018-Feb-12 23:30N 31°07' E 122°18'4 8.4
2018-Feb-12 23:00N 31°06' E 122°23'4 7.0
2018-Feb-12 22:30N 31°07' E 122°27'3 6.2
2018-Feb-12 21:58N 31°09' E 122°30'5 9.1
2018-Feb-12 21:28N 31°14' E 122°31'302 8.4
2018-Feb-11 09:37N 35°59' E 120°31'3 7.9
2018-Feb-11 09:11N 35°60' E 120°27'311.6
2018-Feb-11 08:54N 36°00' E 120°23'611.4
2018-Feb-11 08:25N 36°02' E 120°17'3 6.1
2018-Feb-11 07:56N 36°01' E 120°13'0 0.2
2018-Feb-11 07:24N 36°00' E 120°13'0 0.1
2018-Feb-11 06:37N 36°00' E 120°13'0 0.0
2018-Feb-11 06:07N 36°00' E 120°13'0 0.0
2018-Feb-11 05:13N 36°00' E 120°13'0 0.0
2018-Feb-11 04:55N 36°00' E 120°13'0 0.0
2018-Feb-11 04:22N 36°00' E 120°13'0 0.0
2018-Feb-11 03:18N 36°00' E 120°13'0 0.0
2018-Feb-11 02:58N 36°00' E 120°13'0 0.0
2018-Feb-11 02:25N 36°00' E 120°13'0 0.0
2018-Feb-11 01:58N 36°00' E 120°13'0 0.0
2018-Feb-11 01:28N 36°00' E 120°13'0 0.0
2018-Feb-11 00:28N 36°00' E 120°13'0 0.0
2018-Feb-10 23:52N 36°00' E 120°13'0 0.0
2018-Feb-10 22:49N 36°00' E 120°13'0 0.0
2018-Feb-10 22:13N 36°00' E 120°13'0 0.0
2018-Feb-10 21:31N 36°00' E 120°13'0 0.0
2018-Feb-10 20:34N 36°00' E 120°13'0 0.0
2018-Feb-10 20:16N 36°00' E 120°13'0 0.0
2018-Feb-10 20:00N 36°00' E 120°13'0 0.0
2018-Feb-10 19:21N 36°00' E 120°13'0 0.0
2018-Feb-10 18:59N 36°00' E 120°13'0 0.0
2018-Feb-10 17:44N 36°00' E 120°13'0 0.2
2018-Feb-10 17:25N 36°00' E 120°13'0 0.0
2018-Feb-10 15:22N 36°00' E 120°13'0 0.0
2018-Feb-10 14:49N 36°00' E 120°13'0 0.0
2018-Feb-10 14:16N 36°00' E 120°13'0 0.0
2018-Feb-10 13:58N 36°00' E 120°13'0 0.0
2018-Feb-10 13:22N 36°00' E 120°13'0 0.0
2018-Feb-10 12:58N 36°00' E 120°13'0 0.0
2018-Feb-10 11:48N 36°00' E 120°13'0 0.0
2018-Feb-10 11:29N 36°00' E 120°13'0 0.1
2018-Feb-10 10:52N 36°00' E 120°13'0 0.1
2018-Feb-10 10:16N 36°00' E 120°13'0 0.3
2018-Feb-10 09:35N 36°01' E 120°13'1 4.9
2018-Feb-10 09:18N 36°02' E 120°14'510.5
2018-Feb-10 08:48N 36°01' E 120°21'  

Dump ship's entire track history